createdAt,value
2018-08-12T00:00:18.704Z,15.40
2018-08-12T00:02:49.172Z,15.30
2018-08-12T00:05:17.747Z,15.30
2018-08-12T00:07:46.207Z,15.30
2018-08-12T00:10:15.318Z,15.30
2018-08-12T00:12:45.805Z,15.30
2018-08-12T00:15:16.177Z,15.30
2018-08-12T00:17:45.356Z,15.30
2018-08-12T00:20:20.418Z,15.30
2018-08-12T00:22:49.519Z,15.30
2018-08-12T00:25:19.370Z,15.30
2018-08-12T00:27:49.121Z,15.20
2018-08-12T00:30:18.389Z,15.30
2018-08-12T00:32:46.797Z,15.30
2018-08-12T00:35:17.142Z,15.20
2018-08-12T00:37:50.296Z,15.20
2018-08-12T00:40:18.569Z,15.20
2018-08-12T00:42:47.316Z,15.20
2018-08-12T00:45:23.483Z,15.20
2018-08-12T00:47:53.324Z,15.20
2018-08-12T00:50:21.898Z,15.20
2018-08-12T00:52:51.368Z,15.20
2018-08-12T00:55:19.802Z,15.20
2018-08-12T00:57:48.778Z,15.30
2018-08-12T01:00:19.668Z,15.30
2018-08-12T01:02:48.005Z,15.20
2018-08-12T01:05:18.174Z,15.20
2018-08-12T01:07:47.392Z,15.20
2018-08-12T01:10:17.839Z,15.20
2018-08-12T01:12:46.740Z,15.20
2018-08-12T01:15:22.695Z,15.20
2018-08-12T01:17:51.095Z,15.30
2018-08-12T01:20:50.063Z,15.20
2018-08-12T01:23:18.382Z,15.20
2018-08-12T01:25:47.387Z,15.20
2018-08-12T01:28:21.271Z,15.10
2018-08-12T01:30:49.991Z,15.10
2018-08-12T01:33:18.578Z,15.10
2018-08-12T01:35:47.684Z,15.10
2018-08-12T01:38:16.241Z,15.10
2018-08-12T01:40:45.012Z,15.10
2018-08-12T01:43:15.102Z,15.00
2018-08-12T01:45:47.257Z,15.00
2018-08-12T01:48:16.049Z,15.00
2018-08-12T01:50:44.866Z,14.90
2018-08-12T01:53:13.363Z,15.00
2018-08-12T01:55:42.585Z,15.00
2018-08-12T01:58:11.764Z,15.00
2018-08-12T02:00:46.228Z,15.00
2018-08-12T02:03:15.803Z,15.00
2018-08-12T02:05:45.171Z,15.00
2018-08-12T02:08:17.550Z,14.90
2018-08-12T02:10:46.438Z,14.90
2018-08-12T02:13:15.374Z,14.90
2018-08-12T02:15:49.977Z,14.90
2018-08-12T02:18:19.067Z,14.90
2018-08-12T02:20:51.052Z,14.80
2018-08-12T02:23:19.556Z,14.90
2018-08-12T02:25:49.168Z,14.90
2018-08-12T02:28:24.144Z,14.90
2018-08-12T02:30:57.915Z,14.90
2018-08-12T02:33:27.451Z,14.80
2018-08-12T02:35:56.517Z,14.80
2018-08-12T02:38:25.114Z,14.80
2018-08-12T02:40:53.462Z,14.80
2018-08-12T02:43:22.262Z,14.80
2018-08-12T02:45:51.327Z,14.90
2018-08-12T02:48:19.581Z,14.90
2018-08-12T02:50:48.179Z,14.90
2018-08-12T02:53:16.566Z,14.90
2018-08-12T02:55:50.106Z,14.90
2018-08-12T02:58:18.683Z,15.00
2018-08-12T03:00:48.904Z,14.90
2018-08-12T03:03:17.270Z,15.00
2018-08-12T03:05:47.013Z,15.00
2018-08-12T03:08:15.979Z,15.00
2018-08-12T03:10:44.291Z,15.00
2018-08-12T03:13:13.046Z,15.00
2018-08-12T03:15:41.249Z,15.00
2018-08-12T03:18:11.340Z,15.00
2018-08-12T03:20:39.867Z,15.10
2018-08-12T03:23:09.092Z,15.10
2018-08-12T03:25:37.491Z,15.10
2018-08-12T03:28:06.372Z,15.10
2018-08-12T03:30:36.720Z,15.10
2018-08-12T03:33:05.080Z,15.10
2018-08-12T03:35:33.450Z,15.00
2018-08-12T03:38:01.759Z,15.00
2018-08-12T03:40:30.651Z,15.00
2018-08-12T03:42:59.453Z,15.00
2018-08-12T03:45:28.118Z,15.10
2018-08-12T03:47:57.465Z,15.10
2018-08-12T03:50:25.994Z,15.10
2018-08-12T03:52:55.593Z,15.10
2018-08-12T03:55:25.502Z,15.10
2018-08-12T03:57:55.402Z,15.10
2018-08-12T04:00:23.837Z,15.10
2018-08-12T04:02:53.347Z,15.10
2018-08-12T04:05:22.518Z,15.10
2018-08-12T04:07:50.997Z,15.10
2018-08-12T04:10:19.680Z,15.10
2018-08-12T04:12:48.273Z,15.10
2018-08-12T04:15:17.555Z,15.20
2018-08-12T04:17:46.155Z,15.20
2018-08-12T04:20:15.392Z,15.20
2018-08-12T04:22:44.100Z,15.30
2018-08-12T04:25:13.198Z,15.30
2018-08-12T04:27:41.794Z,15.30
2018-08-12T04:30:10.590Z,15.30
2018-08-12T04:32:39.992Z,15.30
2018-08-12T04:35:10.185Z,15.30
2018-08-12T04:37:39.027Z,15.40
2018-08-12T04:40:14.934Z,15.40
2018-08-12T04:42:43.250Z,15.50
2018-08-12T04:45:12.208Z,15.50
2018-08-12T04:47:40.551Z,15.70
2018-08-12T04:50:15.439Z,15.70
2018-08-12T04:52:45.311Z,15.80
2018-08-12T04:55:13.982Z,15.90
2018-08-12T04:57:47.759Z,16.00
2018-08-12T05:00:17.018Z,16.00
2018-08-12T05:02:45.483Z,16.00
2018-08-12T05:05:14.010Z,16.10
2018-08-12T05:07:43.322Z,16.20
2018-08-12T05:10:11.866Z,16.20
2018-08-12T05:12:40.166Z,16.30
2018-08-12T05:15:09.611Z,16.30
2018-08-12T05:17:39.316Z,16.30
2018-08-12T05:20:08.267Z,16.40
2018-08-12T05:22:37.231Z,16.30
2018-08-12T05:25:05.600Z,16.40
2018-08-12T05:27:35.077Z,16.40
2018-08-12T05:30:03.820Z,16.40
2018-08-12T05:32:32.768Z,16.40
2018-08-12T05:35:01.391Z,16.40
2018-08-12T05:37:30.332Z,16.40
2018-08-12T05:39:59.114Z,16.50
2018-08-12T05:42:27.594Z,16.50
2018-08-12T05:44:59.218Z,16.50
2018-08-12T05:47:27.933Z,16.50
2018-08-12T05:49:56.796Z,16.50
2018-08-12T05:52:25.507Z,16.50
2018-08-12T05:54:54.160Z,16.50
2018-08-12T05:57:23.743Z,16.50
2018-08-12T05:59:53.146Z,16.50
2018-08-12T06:02:21.630Z,16.60
2018-08-12T06:04:50.083Z,16.60
2018-08-12T06:07:18.370Z,16.70
2018-08-12T06:09:47.142Z,16.80
2018-08-12T06:12:17.070Z,16.90
2018-08-12T06:14:45.873Z,16.90
2018-08-12T06:17:15.784Z,17.00
2018-08-12T06:19:45.915Z,17.10
2018-08-12T06:22:14.492Z,17.20
2018-08-12T06:24:43.626Z,17.20
2018-08-12T06:27:12.455Z,17.30
2018-08-12T06:29:41.697Z,17.30
2018-08-12T06:32:11.009Z,17.30
2018-08-12T06:34:40.273Z,17.30
2018-08-12T06:37:10.450Z,17.30
2018-08-12T06:39:39.514Z,17.40
2018-08-12T06:42:08.676Z,17.40
2018-08-12T06:44:37.795Z,17.50
2018-08-12T06:47:06.685Z,17.50
2018-08-12T06:49:35.208Z,17.60
2018-08-12T06:52:04.778Z,17.70
2018-08-12T06:54:34.651Z,17.70
2018-08-12T06:57:03.608Z,17.70
2018-08-12T06:59:32.544Z,17.70
2018-08-12T07:02:01.981Z,17.70
2018-08-12T07:04:30.772Z,17.60
2018-08-12T07:07:01.585Z,17.60
2018-08-12T07:09:30.135Z,17.70
2018-08-12T07:11:58.657Z,17.70
2018-08-12T07:14:28.586Z,17.80
2018-08-12T07:16:59.800Z,17.80
2018-08-12T07:19:31.721Z,17.90
2018-08-12T07:22:00.866Z,17.90
2018-08-12T07:24:30.665Z,18.00
2018-08-12T07:27:00.661Z,18.10
2018-08-12T07:32:11.711Z,18.30
2018-08-12T07:34:40.698Z,18.30
2018-08-12T07:37:12.286Z,18.40
2018-08-12T07:39:42.237Z,18.40
2018-08-12T07:42:14.388Z,18.40
2018-08-12T07:44:44.709Z,18.60
2018-08-12T07:47:16.589Z,18.70
2018-08-12T07:56:35.621Z,19.20
2018-08-12T07:59:09.105Z,19.20
2018-08-12T08:01:38.424Z,19.30
2018-08-12T08:04:18.990Z,19.30
2018-08-12T08:06:47.978Z,19.30
2018-08-12T08:12:39.198Z,19.50
2018-08-12T08:15:14.946Z,19.60
2018-08-12T08:17:43.910Z,19.60
2018-08-12T08:20:16.574Z,19.60
2018-08-12T08:22:47.572Z,19.60
2018-08-12T08:25:16.642Z,19.60
2018-08-12T08:27:51.478Z,19.70
2018-08-12T08:30:21.008Z,19.70
2018-08-12T08:32:51.049Z,19.70
2018-08-12T08:35:25.584Z,19.70
2018-08-12T08:37:55.009Z,19.80
2018-08-12T08:40:34.374Z,19.80
2018-08-12T08:43:02.738Z,19.80
2018-08-12T08:45:31.953Z,19.80
2018-08-12T08:48:00.698Z,19.90
2018-08-12T08:50:34.939Z,20.00
2018-08-12T08:53:04.011Z,20.10
2018-08-12T08:55:34.724Z,20.20
2018-08-12T08:58:05.498Z,20.20
2018-08-12T09:00:34.434Z,20.20
2018-08-12T09:03:09.454Z,20.30
2018-08-12T09:05:38.980Z,20.30
2018-08-12T09:08:09.267Z,20.50
2018-08-12T09:10:48.288Z,20.50
2018-08-12T09:13:20.830Z,20.70
2018-08-12T09:15:50.458Z,20.80
2018-08-12T09:18:19.547Z,21.00
2018-08-12T09:20:49.599Z,21.00
2018-08-12T09:23:19.032Z,21.10
2018-08-12T09:25:48.283Z,21.10
2018-08-12T09:28:18.718Z,21.10
2018-08-12T09:30:52.788Z,21.10
2018-08-12T09:33:21.561Z,21.20
2018-08-12T09:35:50.311Z,21.20
2018-08-12T09:38:18.598Z,21.30
2018-08-12T09:40:48.063Z,21.20
2018-08-12T09:43:18.779Z,21.20
2018-08-12T09:45:50.073Z,21.20
2018-08-12T09:48:24.466Z,21.20
2018-08-12T09:50:59.764Z,21.30
2018-08-12T09:56:11.573Z,21.40
2018-08-12T09:58:48.767Z,21.40
2018-08-12T10:01:49.327Z,21.50
2018-08-12T10:04:22.422Z,21.50
2018-08-12T10:06:52.865Z,21.50
2018-08-12T10:09:22.591Z,21.50
2018-08-12T10:12:00.716Z,21.60
2018-08-12T10:14:32.596Z,21.60
2018-08-12T10:17:01.256Z,21.70
2018-08-12T10:19:31.416Z,21.80
2018-08-12T10:22:06.938Z,21.90
2018-08-12T10:24:39.673Z,21.90
2018-08-12T10:27:09.702Z,22.00
2018-08-12T10:29:38.182Z,22.10
2018-08-12T10:32:11.422Z,22.10
2018-08-12T10:34:44.206Z,22.30
2018-08-12T10:37:26.993Z,22.30
2018-08-12T10:39:56.375Z,22.40
2018-08-12T10:42:39.476Z,22.50
2018-08-12T10:45:09.025Z,22.60
2018-08-12T10:47:39.894Z,22.70
2018-08-12T10:50:33.836Z,22.80
2018-08-12T10:53:05.394Z,23.00
2018-08-12T10:55:34.692Z,23.00
2018-08-12T10:58:05.695Z,23.00
2018-08-12T11:00:36.728Z,23.10
2018-08-12T11:03:06.254Z,23.20
2018-08-12T11:05:39.364Z,23.10
2018-08-12T11:08:09.244Z,23.10
2018-08-12T11:10:44.844Z,23.20
2018-08-12T11:13:18.842Z,23.20
2018-08-12T11:15:47.375Z,23.20
2018-08-12T11:18:29.400Z,23.20
2018-08-12T11:23:33.803Z,23.00
2018-08-12T11:26:02.884Z,23.10
2018-08-12T11:28:32.647Z,23.20
2018-08-12T11:31:08.894Z,23.20
2018-08-12T11:33:41.169Z,23.30
2018-08-12T11:36:11.545Z,23.20
2018-08-12T11:38:41.405Z,23.10
2018-08-12T11:41:12.967Z,23.10
2018-08-12T11:43:44.707Z,23.00
2018-08-12T11:46:17.951Z,22.80
2018-08-12T11:48:59.967Z,22.70
2018-08-12T11:51:31.651Z,22.60
2018-08-12T11:54:03.120Z,22.60
2018-08-12T11:56:41.592Z,22.50
2018-08-12T11:59:16.815Z,22.50
2018-08-12T12:01:48.211Z,22.30
2018-08-12T12:04:22.001Z,22.20
2018-08-12T12:06:57.868Z,22.30
2018-08-12T12:09:26.877Z,22.30
2018-08-12T12:11:57.829Z,22.40
2018-08-12T12:14:30.444Z,22.30
2018-08-12T12:16:59.013Z,22.10
2018-08-12T12:19:34.305Z,22.10
2018-08-12T12:22:03.879Z,22.10
2018-08-12T12:27:22.474Z,22.10
2018-08-12T12:29:55.904Z,22.10
2018-08-12T12:32:26.153Z,22.20
2018-08-12T12:34:59.061Z,22.20
2018-08-12T12:37:29.048Z,22.20
2018-08-12T12:39:58.429Z,22.20
2018-08-12T12:42:28.475Z,22.30
2018-08-12T12:44:57.371Z,22.40
2018-08-12T12:47:27.402Z,22.50
2018-08-12T12:49:57.257Z,22.40
2018-08-12T12:52:26.534Z,22.20
2018-08-12T12:54:57.242Z,22.10
2018-08-12T12:57:26.280Z,21.90
2018-08-12T12:59:55.652Z,21.80
2018-08-12T13:02:24.566Z,21.70
2018-08-12T13:04:53.598Z,21.60
2018-08-12T13:07:24.309Z,21.50
2018-08-12T13:09:57.664Z,21.40
2018-08-12T13:12:36.076Z,21.20
2018-08-12T13:15:05.202Z,21.10
2018-08-12T13:20:40.515Z,20.80
2018-08-12T13:23:16.355Z,20.60
2018-08-12T13:25:47.139Z,20.40
2018-08-12T13:31:06.714Z,19.90
2018-08-12T13:33:50.888Z,19.60
2018-08-12T13:36:20.652Z,19.50
2018-08-12T13:39:00.192Z,19.40
2018-08-12T13:41:32.347Z,19.30
2018-08-12T13:58:23.916Z,19.00
2018-08-12T14:14:32.077Z,18.50
2018-08-12T14:17:06.367Z,18.30
2018-08-12T14:19:56.045Z,18.10
2018-08-12T14:22:26.115Z,18.00
2018-08-12T14:24:56.964Z,18.00
2018-08-12T16:49:06.573Z,16.00
2018-08-12T18:17:48.793Z,15.80
2018-08-12T18:46:14.591Z,14.90
2018-08-12T19:28:25.829Z,14.40
2018-08-12T21:47:35.802Z,13.80
2018-08-12T21:53:01.174Z,13.80
2018-08-12T22:04:50.201Z,13.70
2018-08-12T22:13:04.402Z,13.70
2018-08-12T22:18:26.014Z,13.70
2018-08-12T22:29:28.040Z,13.70
2018-08-12T22:37:58.397Z,13.70
2018-08-12T22:40:47.042Z,13.70
2018-08-12T22:52:16.142Z,13.80
2018-08-12T22:54:57.518Z,13.80
2018-08-12T23:14:11.719Z,13.90
2018-08-12T23:16:55.725Z,13.80
2018-08-12T23:43:04.783Z,13.90
